sensor_id;sensor_type;location;lat;lon;timestamp;P1;durP1;ratioP1;P2;durP2;ratioP2
54993;SDS011;40891;47.242;8.648;2023-07-08T00:00:09;10.27;;;4.25;;
54993;SDS011;40891;47.242;8.648;2023-07-08T00:02:36;8.25;;;3.90;;
54993;SDS011;40891;47.242;8.648;2023-07-08T00:05:02;9.95;;;3.97;;
54993;SDS011;40891;47.242;8.648;2023-07-08T00:07:27;7.85;;;4.13;;
54993;SDS011;40891;47.242;8.648;2023-07-08T00:09:52;12.93;;;4.65;;
54993;SDS011;40891;47.242;8.648;2023-07-08T00:12:18;9.45;;;4.07;;
54993;SDS011;40891;47.242;8.648;2023-07-08T00:14:43;9.13;;;4.50;;
54993;SDS011;40891;47.242;8.648;2023-07-08T00:17:12;10.23;;;4.60;;
54993;SDS011;40891;47.242;8.648;2023-07-08T00:19:38;9.23;;;4.22;;
54993;SDS011;40891;47.242;8.648;2023-07-08T00:22:08;9.90;;;3.83;;
54993;SDS011;40891;47.242;8.648;2023-07-08T00:24:36;11.50;;;4.85;;
54993;SDS011;40891;47.242;8.648;2023-07-08T00:27:01;12.38;;;5.07;;
54993;SDS011;40891;47.242;8.648;2023-07-08T00:29:26;8.15;;;4.32;;
54993;SDS011;40891;47.242;8.648;2023-07-08T00:31:52;14.52;;;3.78;;
54993;SDS011;40891;47.242;8.648;2023-07-08T00:34:17;8.55;;;4.50;;
54993;SDS011;40891;47.242;8.648;2023-07-08T00:36:42;9.90;;;4.43;;
54993;SDS011;40891;47.242;8.648;2023-07-08T00:39:10;9.82;;;4.32;;
54993;SDS011;40891;47.242;8.648;2023-07-08T00:41:39;12.02;;;4.57;;
54993;SDS011;40891;47.242;8.648;2023-07-08T00:44:08;9.45;;;4.15;;
54993;SDS011;40891;47.242;8.648;2023-07-08T00:46:42;7.18;;;4.00;;
54993;SDS011;40891;47.242;8.648;2023-07-08T00:49:23;12.68;;;4.90;;
54993;SDS011;40891;47.242;8.648;2023-07-08T00:51:53;11.13;;;4.20;;
54993;SDS011;40891;47.242;8.648;2023-07-08T00:54:19;11.00;;;4.60;;
54993;SDS011;40891;47.242;8.648;2023-07-08T00:57:06;8.35;;;4.60;;
54993;SDS011;40891;47.242;8.648;2023-07-08T00:59:31;14.27;;;4.20;;
54993;SDS011;40891;47.242;8.648;2023-07-08T01:02:01;7.85;;;4.07;;
54993;SDS011;40891;47.242;8.648;2023-07-08T01:04:34;8.98;;;4.15;;
54993;SDS011;40891;47.242;8.648;2023-07-08T01:07:07;12.85;;;5.03;;
54993;SDS011;40891;47.242;8.648;2023-07-08T01:09:34;10.48;;;4.72;;
54993;SDS011;40891;47.242;8.648;2023-07-08T01:12:04;7.85;;;4.53;;
54993;SDS011;40891;47.242;8.648;2023-07-08T01:14:34;10.32;;;5.00;;
54993;SDS011;40891;47.242;8.648;2023-07-08T01:17:03;13.25;;;4.22;;
54993;SDS011;40891;47.242;8.648;2023-07-08T01:19:29;10.90;;;4.50;;
54993;SDS011;40891;47.242;8.648;2023-07-08T01:21:59;7.65;;;4.45;;
54993;SDS011;40891;47.242;8.648;2023-07-08T01:24:29;8.55;;;4.97;;
54993;SDS011;40891;47.242;8.648;2023-07-08T01:26:56;9.55;;;4.88;;
54993;SDS011;40891;47.242;8.648;2023-07-08T01:29:22;10.15;;;4.93;;
54993;SDS011;40891;47.242;8.648;2023-07-08T01:31:48;10.18;;;4.32;;
54993;SDS011;40891;47.242;8.648;2023-07-08T01:34:14;11.98;;;4.80;;
54993;SDS011;40891;47.242;8.648;2023-07-08T01:36:45;16.60;;;4.78;;
54993;SDS011;40891;47.242;8.648;2023-07-08T01:39:16;9.57;;;4.65;;
54993;SDS011;40891;47.242;8.648;2023-07-08T01:41:44;11.43;;;4.45;;
54993;SDS011;40891;47.242;8.648;2023-07-08T01:47:12;11.18;;;4.50;;
54993;SDS011;40891;47.242;8.648;2023-07-08T01:49:41;9.40;;;4.20;;
54993;SDS011;40891;47.242;8.648;2023-07-08T01:52:09;8.80;;;4.28;;
54993;SDS011;40891;47.242;8.648;2023-07-08T01:54:36;13.52;;;4.70;;
54993;SDS011;40891;47.242;8.648;2023-07-08T01:57:02;11.05;;;4.28;;
54993;SDS011;40891;47.242;8.648;2023-07-08T01:59:27;6.93;;;4.47;;
54993;SDS011;40891;47.242;8.648;2023-07-08T02:01:53;12.15;;;4.57;;
54993;SDS011;40891;47.242;8.648;2023-07-08T02:04:23;9.15;;;4.82;;
54993;SDS011;40891;47.242;8.648;2023-07-08T02:06:57;9.43;;;4.40;;
54993;SDS011;40891;47.242;8.648;2023-07-08T02:09:24;7.63;;;4.13;;
54993;SDS011;40891;47.242;8.648;2023-07-08T02:11:50;14.77;;;5.20;;
54993;SDS011;40891;47.242;8.648;2023-07-08T02:14:16;12.55;;;4.43;;
54993;SDS011;40891;47.242;8.648;2023-07-08T02:16:41;8.68;;;4.10;;
54993;SDS011;40891;47.242;8.648;2023-07-08T02:19:07;14.80;;;4.53;;
54993;SDS011;40891;47.242;8.648;2023-07-08T02:21:32;6.80;;;3.97;;
54993;SDS011;40891;47.242;8.648;2023-07-08T02:23:58;7.38;;;3.97;;
54993;SDS011;40891;47.242;8.648;2023-07-08T02:26:25;10.48;;;4.10;;
54993;SDS011;40891;47.242;8.648;2023-07-08T02:28:51;7.38;;;3.67;;
54993;SDS011;40891;47.242;8.648;2023-07-08T02:31:16;9.63;;;4.20;;
54993;SDS011;40891;47.242;8.648;2023-07-08T02:33:42;8.35;;;3.78;;
54993;SDS011;40891;47.242;8.648;2023-07-08T02:36:07;10.60;;;4.07;;
54993;SDS011;40891;47.242;8.648;2023-07-08T02:38:33;9.30;;;4.13;;
54993;SDS011;40891;47.242;8.648;2023-07-08T02:40:58;13.80;;;4.03;;
54993;SDS011;40891;47.242;8.648;2023-07-08T02:43:24;8.25;;;4.07;;
54993;SDS011;40891;47.242;8.648;2023-07-08T02:45:50;9.43;;;3.85;;
54993;SDS011;40891;47.242;8.648;2023-07-08T02:48:17;13.65;;;4.88;;
54993;SDS011;40891;47.242;8.648;2023-07-08T02:50:45;7.43;;;4.70;;
54993;SDS011;40891;47.242;8.648;2023-07-08T02:53:11;8.70;;;3.97;;
54993;SDS011;40891;47.242;8.648;2023-07-08T02:55:36;8.05;;;3.97;;
54993;SDS011;40891;47.242;8.648;2023-07-08T02:58:01;8.77;;;4.57;;
54993;SDS011;40891;47.242;8.648;2023-07-08T03:00:27;8.98;;;4.20;;
54993;SDS011;40891;47.242;8.648;2023-07-08T03:02:52;9.60;;;4.82;;
54993;SDS011;40891;47.242;8.648;2023-07-08T03:05:18;10.13;;;4.07;;
54993;SDS011;40891;47.242;8.648;2023-07-08T03:07:43;8.60;;;4.32;;
54993;SDS011;40891;47.242;8.648;2023-07-08T03:10:09;10.40;;;4.18;;
54993;SDS011;40891;47.242;8.648;2023-07-08T03:12:34;9.60;;;4.32;;
54993;SDS011;40891;47.242;8.648;2023-07-08T03:14:59;17.20;;;5.07;;
54993;SDS011;40891;47.242;8.648;2023-07-08T03:17:25;14.32;;;4.40;;
54993;SDS011;40891;47.242;8.648;2023-07-08T03:19:50;11.07;;;4.10;;
54993;SDS011;40891;47.242;8.648;2023-07-08T03:22:15;8.77;;;4.20;;
54993;SDS011;40891;47.242;8.648;2023-07-08T03:24:41;17.60;;;4.22;;
54993;SDS011;40891;47.242;8.648;2023-07-08T03:27:11;7.85;;;4.32;;
54993;SDS011;40891;47.242;8.648;2023-07-08T03:29:37;10.75;;;4.35;;
54993;SDS011;40891;47.242;8.648;2023-07-08T03:32:03;8.82;;;4.55;;
54993;SDS011;40891;47.242;8.648;2023-07-08T03:34:28;10.75;;;4.30;;
54993;SDS011;40891;47.242;8.648;2023-07-08T03:36:54;5.88;;;3.55;;
54993;SDS011;40891;47.242;8.648;2023-07-08T03:39:20;10.15;;;4.72;;
54993;SDS011;40891;47.242;8.648;2023-07-08T03:41:47;11.50;;;4.13;;
54993;SDS011;40891;47.242;8.648;2023-07-08T03:44:14;9.35;;;4.32;;
54993;SDS011;40891;47.242;8.648;2023-07-08T03:46:43;16.48;;;4.43;;
54993;SDS011;40891;47.242;8.648;2023-07-08T03:49:10;13.32;;;4.57;;
54993;SDS011;40891;47.242;8.648;2023-07-08T03:51:37;11.25;;;4.07;;
54993;SDS011;40891;47.242;8.648;2023-07-08T03:54:04;7.95;;;3.83;;
54993;SDS011;40891;47.242;8.648;2023-07-08T03:56:31;8.73;;;3.97;;
54993;SDS011;40891;47.242;8.648;2023-07-08T03:58:57;9.27;;;4.05;;
54993;SDS011;40891;47.242;8.648;2023-07-08T04:01:23;7.15;;;3.90;;
54993;SDS011;40891;47.242;8.648;2023-07-08T04:03:53;8.30;;;3.65;;
54993;SDS011;40891;47.242;8.648;2023-07-08T04:06:20;8.80;;;3.65;;
54993;SDS011;40891;47.242;8.648;2023-07-08T04:08:46;8.60;;;4.05;;
54993;SDS011;40891;47.242;8.648;2023-07-08T04:11:12;12.05;;;4.05;;
54993;SDS011;40891;47.242;8.648;2023-07-08T04:13:40;8.93;;;3.85;;
54993;SDS011;40891;47.242;8.648;2023-07-08T04:16:05;11.07;;;3.50;;
54993;SDS011;40891;47.242;8.648;2023-07-08T04:18:33;11.10;;;4.10;;
54993;SDS011;40891;47.242;8.648;2023-07-08T04:20:59;8.65;;;3.97;;
54993;SDS011;40891;47.242;8.648;2023-07-08T04:23:24;9.90;;;3.88;;
54993;SDS011;40891;47.242;8.648;2023-07-08T04:25:51;7.07;;;3.95;;
54993;SDS011;40891;47.242;8.648;2023-07-08T04:28:19;8.38;;;3.97;;
54993;SDS011;40891;47.242;8.648;2023-07-08T04:30:44;9.88;;;4.18;;
54993;SDS011;40891;47.242;8.648;2023-07-08T04:33:11;6.70;;;3.60;;
54993;SDS011;40891;47.242;8.648;2023-07-08T04:35:37;7.97;;;3.55;;
54993;SDS011;40891;47.242;8.648;2023-07-08T04:38:04;7.43;;;3.40;;
54993;SDS011;40891;47.242;8.648;2023-07-08T04:40:34;11.27;;;3.90;;
54993;SDS011;40891;47.242;8.648;2023-07-08T04:43:08;10.80;;;3.75;;
54993;SDS011;40891;47.242;8.648;2023-07-08T04:45:37;8.75;;;3.78;;
54993;SDS011;40891;47.242;8.648;2023-07-08T04:48:10;7.05;;;3.58;;
54993;SDS011;40891;47.242;8.648;2023-07-08T04:50:41;8.93;;;3.42;;
54993;SDS011;40891;47.242;8.648;2023-07-08T04:53:08;7.13;;;3.20;;
54993;SDS011;40891;47.242;8.648;2023-07-08T04:55:35;6.80;;;3.53;;
54993;SDS011;40891;47.242;8.648;2023-07-08T04:58:02;6.35;;;3.75;;
54993;SDS011;40891;47.242;8.648;2023-07-08T05:00:28;6.57;;;3.28;;
54993;SDS011;40891;47.242;8.648;2023-07-08T05:02:53;9.20;;;2.90;;
54993;SDS011;40891;47.242;8.648;2023-07-08T05:05:19;9.48;;;3.45;;
54993;SDS011;40891;47.242;8.648;2023-07-08T05:07:45;9.38;;;2.78;;
54993;SDS011;40891;47.242;8.648;2023-07-08T05:10:11;4.22;;;2.60;;
54993;SDS011;40891;47.242;8.648;2023-07-08T05:12:36;2.97;;;2.10;;
54993;SDS011;40891;47.242;8.648;2023-07-08T05:15:02;5.10;;;2.28;;
54993;SDS011;40891;47.242;8.648;2023-07-08T05:17:29;5.72;;;2.35;;
54993;SDS011;40891;47.242;8.648;2023-07-08T05:19:54;4.35;;;2.60;;
54993;SDS011;40891;47.242;8.648;2023-07-08T05:22:22;5.20;;;2.60;;
54993;SDS011;40891;47.242;8.648;2023-07-08T05:24:50;5.30;;;2.08;;
54993;SDS011;40891;47.242;8.648;2023-07-08T05:27:17;5.57;;;1.88;;
54993;SDS011;40891;47.242;8.648;2023-07-08T05:29:43;4.07;;;1.75;;
54993;SDS011;40891;47.242;8.648;2023-07-08T05:32:10;4.50;;;1.70;;
54993;SDS011;40891;47.242;8.648;2023-07-08T05:34:36;5.15;;;1.95;;
54993;SDS011;40891;47.242;8.648;2023-07-08T05:37:01;5.35;;;1.60;;
54993;SDS011;40891;47.242;8.648;2023-07-08T05:39:26;5.88;;;1.77;;
54993;SDS011;40891;47.242;8.648;2023-07-08T05:41:52;3.58;;;2.20;;
54993;SDS011;40891;47.242;8.648;2023-07-08T05:44:17;6.75;;;2.38;;
54993;SDS011;40891;47.242;8.648;2023-07-08T05:46:42;7.32;;;2.22;;
54993;SDS011;40891;47.242;8.648;2023-07-08T05:49:08;5.45;;;2.25;;
54993;SDS011;40891;47.242;8.648;2023-07-08T05:51:33;3.67;;;1.92;;
54993;SDS011;40891;47.242;8.648;2023-07-08T05:53:59;4.18;;;1.52;;
54993;SDS011;40891;47.242;8.648;2023-07-08T05:56:25;5.13;;;1.98;;
54993;SDS011;40891;47.242;8.648;2023-07-08T05:58:51;3.75;;;1.95;;
54993;SDS011;40891;47.242;8.648;2023-07-08T06:01:16;1.90;;;1.50;;
54993;SDS011;40891;47.242;8.648;2023-07-08T06:03:42;4.47;;;1.50;;
54993;SDS011;40891;47.242;8.648;2023-07-08T06:06:07;4.32;;;1.60;;
54993;SDS011;40891;47.242;8.648;2023-07-08T06:08:34;2.97;;;1.58;;
54993;SDS011;40891;47.242;8.648;2023-07-08T06:10:59;2.17;;;1.67;;
54993;SDS011;40891;47.242;8.648;2023-07-08T06:13:24;2.50;;;1.67;;
54993;SDS011;40891;47.242;8.648;2023-07-08T06:15:50;6.03;;;1.70;;
54993;SDS011;40891;47.242;8.648;2023-07-08T06:18:15;4.30;;;1.70;;
54993;SDS011;40891;47.242;8.648;2023-07-08T06:20:40;2.78;;;1.58;;
54993;SDS011;40891;47.242;8.648;2023-07-08T06:23:06;2.53;;;1.98;;
54993;SDS011;40891;47.242;8.648;2023-07-08T06:25:31;2.58;;;1.50;;
54993;SDS011;40891;47.242;8.648;2023-07-08T06:27:57;4.38;;;1.83;;
54993;SDS011;40891;47.242;8.648;2023-07-08T06:30:23;3.55;;;1.73;;
54993;SDS011;40891;47.242;8.648;2023-07-08T06:32:48;2.78;;;1.90;;
54993;SDS011;40891;47.242;8.648;2023-07-08T06:35:14;2.28;;;1.60;;
54993;SDS011;40891;47.242;8.648;2023-07-08T06:37:39;3.10;;;2.00;;
54993;SDS011;40891;47.242;8.648;2023-07-08T06:40:05;2.72;;;1.98;;
54993;SDS011;40891;47.242;8.648;2023-07-08T06:42:31;2.65;;;1.55;;
54993;SDS011;40891;47.242;8.648;2023-07-08T06:44:56;3.10;;;1.77;;
54993;SDS011;40891;47.242;8.648;2023-07-08T06:47:21;3.45;;;2.00;;
54993;SDS011;40891;47.242;8.648;2023-07-08T06:49:47;7.72;;;1.88;;
54993;SDS011;40891;47.242;8.648;2023-07-08T06:52:13;6.40;;;1.95;;
54993;SDS011;40891;47.242;8.648;2023-07-08T06:54:39;5.32;;;2.22;;
54993;SDS011;40891;47.242;8.648;2023-07-08T06:57:04;2.55;;;1.63;;
54993;SDS011;40891;47.242;8.648;2023-07-08T06:59:30;3.45;;;1.85;;
54993;SDS011;40891;47.242;8.648;2023-07-08T07:01:55;9.73;;;2.42;;
54993;SDS011;40891;47.242;8.648;2023-07-08T07:04:21;4.03;;;2.35;;
54993;SDS011;40891;47.242;8.648;2023-07-08T07:06:46;4.00;;;1.83;;
54993;SDS011;40891;47.242;8.648;2023-07-08T07:09:11;4.72;;;2.20;;
54993;SDS011;40891;47.242;8.648;2023-07-08T07:11:37;6.18;;;2.13;;
54993;SDS011;40891;47.242;8.648;2023-07-08T07:14:02;6.30;;;2.05;;
54993;SDS011;40891;47.242;8.648;2023-07-08T07:16:28;3.60;;;2.00;;
54993;SDS011;40891;47.242;8.648;2023-07-08T07:18:54;3.70;;;1.92;;
54993;SDS011;40891;47.242;8.648;2023-07-08T07:21:19;6.07;;;2.13;;
54993;SDS011;40891;47.242;8.648;2023-07-08T07:23:45;2.72;;;1.85;;
54993;SDS011;40891;47.242;8.648;2023-07-08T07:26:10;3.75;;;1.60;;
54993;SDS011;40891;47.242;8.648;2023-07-08T07:28:36;4.40;;;2.03;;
54993;SDS011;40891;47.242;8.648;2023-07-08T07:31:01;4.80;;;1.90;;
54993;SDS011;40891;47.242;8.648;2023-07-08T07:33:26;2.25;;;1.58;;
54993;SDS011;40891;47.242;8.648;2023-07-08T07:35:52;3.97;;;1.88;;
54993;SDS011;40891;47.242;8.648;2023-07-08T07:38:18;3.15;;;1.80;;
54993;SDS011;40891;47.242;8.648;2023-07-08T07:40:44;4.72;;;1.70;;
54993;SDS011;40891;47.242;8.648;2023-07-08T07:43:10;3.67;;;1.67;;
54993;SDS011;40891;47.242;8.648;2023-07-08T07:45:36;3.03;;;1.70;;
54993;SDS011;40891;47.242;8.648;2023-07-08T07:48:01;2.40;;;1.65;;
54993;SDS011;40891;47.242;8.648;2023-07-08T07:50:27;3.85;;;1.80;;
54993;SDS011;40891;47.242;8.648;2023-07-08T07:52:53;2.63;;;1.63;;
54993;SDS011;40891;47.242;8.648;2023-07-08T07:55:18;5.38;;;1.80;;
54993;SDS011;40891;47.242;8.648;2023-07-08T07:57:44;2.22;;;1.80;;
54993;SDS011;40891;47.242;8.648;2023-07-08T08:00:11;3.60;;;1.98;;
54993;SDS011;40891;47.242;8.648;2023-07-08T08:02:37;4.55;;;1.60;;
54993;SDS011;40891;47.242;8.648;2023-07-08T08:05:02;3.83;;;2.05;;
54993;SDS011;40891;47.242;8.648;2023-07-08T08:07:28;4.60;;;2.00;;
54993;SDS011;40891;47.242;8.648;2023-07-08T08:09:53;5.10;;;2.15;;
54993;SDS011;40891;47.242;8.648;2023-07-08T08:12:18;6.05;;;1.95;;
54993;SDS011;40891;47.242;8.648;2023-07-08T08:14:44;8.10;;;2.08;;
54993;SDS011;40891;47.242;8.648;2023-07-08T08:17:09;3.67;;;2.10;;
54993;SDS011;40891;47.242;8.648;2023-07-08T08:19:35;5.38;;;2.10;;
54993;SDS011;40891;47.242;8.648;2023-07-08T08:22:00;3.70;;;1.88;;
54993;SDS011;40891;47.242;8.648;2023-07-08T08:24:25;3.80;;;1.92;;
54993;SDS011;40891;47.242;8.648;2023-07-08T08:26:51;5.10;;;2.03;;
54993;SDS011;40891;47.242;8.648;2023-07-08T08:29:17;3.05;;;2.22;;
54993;SDS011;40891;47.242;8.648;2023-07-08T08:31:42;3.20;;;2.17;;
54993;SDS011;40891;47.242;8.648;2023-07-08T08:34:07;4.60;;;1.85;;
54993;SDS011;40891;47.242;8.648;2023-07-08T08:36:33;4.90;;;2.30;;
54993;SDS011;40891;47.242;8.648;2023-07-08T08:38:58;4.22;;;2.05;;
54993;SDS011;40891;47.242;8.648;2023-07-08T08:41:30;3.70;;;1.98;;
54993;SDS011;40891;47.242;8.648;2023-07-08T08:43:58;3.13;;;2.05;;
54993;SDS011;40891;47.242;8.648;2023-07-08T08:46:29;4.55;;;1.90;;
54993;SDS011;40891;47.242;8.648;2023-07-08T08:52:17;6.05;;;2.20;;
54993;SDS011;40891;47.242;8.648;2023-07-08T08:54:43;4.07;;;1.90;;
54993;SDS011;40891;47.242;8.648;2023-07-08T08:57:23;4.95;;;2.28;;
54993;SDS011;40891;47.242;8.648;2023-07-08T08:59:57;4.38;;;2.25;;
54993;SDS011;40891;47.242;8.648;2023-07-08T09:02:41;3.75;;;1.90;;
54993;SDS011;40891;47.242;8.648;2023-07-08T09:05:18;3.60;;;1.85;;
54993;SDS011;40891;47.242;8.648;2023-07-08T09:07:58;4.35;;;2.03;;
54993;SDS011;40891;47.242;8.648;2023-07-08T09:12:54;5.57;;;2.10;;
54993;SDS011;40891;47.242;8.648;2023-07-08T09:15:22;5.78;;;2.20;;
54993;SDS011;40891;47.242;8.648;2023-07-08T09:17:47;3.70;;;1.92;;
54993;SDS011;40891;47.242;8.648;2023-07-08T09:20:26;3.53;;;1.88;;
54993;SDS011;40891;47.242;8.648;2023-07-08T09:25:32;2.88;;;2.03;;
54993;SDS011;40891;47.242;8.648;2023-07-08T09:28:00;4.60;;;2.00;;
54993;SDS011;40891;47.242;8.648;2023-07-08T09:30:27;4.10;;;1.75;;
54993;SDS011;40891;47.242;8.648;2023-07-08T09:32:55;4.55;;;1.90;;
54993;SDS011;40891;47.242;8.648;2023-07-08T09:35:22;6.03;;;1.90;;
54993;SDS011;40891;47.242;8.648;2023-07-08T09:37:51;4.70;;;2.15;;
54993;SDS011;40891;47.242;8.648;2023-07-08T09:43:03;3.25;;;1.70;;
54993;SDS011;40891;47.242;8.648;2023-07-08T09:45:40;3.47;;;2.10;;
54993;SDS011;40891;47.242;8.648;2023-07-08T09:48:14;2.25;;;1.60;;
54993;SDS011;40891;47.242;8.648;2023-07-08T09:50:43;4.80;;;1.63;;
54993;SDS011;40891;47.242;8.648;2023-07-08T09:53:12;3.25;;;1.67;;
54993;SDS011;40891;47.242;8.648;2023-07-08T09:55:39;4.63;;;2.03;;
54993;SDS011;40891;47.242;8.648;2023-07-08T09:58:04;3.40;;;1.80;;
54993;SDS011;40891;47.242;8.648;2023-07-08T10:00:37;2.47;;;1.77;;
54993;SDS011;40891;47.242;8.648;2023-07-08T10:03:11;3.88;;;1.73;;
54993;SDS011;40891;47.242;8.648;2023-07-08T10:05:43;2.72;;;1.70;;
54993;SDS011;40891;47.242;8.648;2023-07-08T10:08:16;2.70;;;1.70;;
54993;SDS011;40891;47.242;8.648;2023-07-08T10:10:43;2.17;;;1.58;;
54993;SDS011;40891;47.242;8.648;2023-07-08T10:13:19;2.97;;;1.45;;
54993;SDS011;40891;47.242;8.648;2023-07-08T10:15:52;2.97;;;1.77;;
54993;SDS011;40891;47.242;8.648;2023-07-08T10:18:29;3.50;;;1.70;;
54993;SDS011;40891;47.242;8.648;2023-07-08T10:24:40;2.10;;;1.65;;
54993;SDS011;40891;47.242;8.648;2023-07-08T10:27:12;2.42;;;1.63;;
54993;SDS011;40891;47.242;8.648;2023-07-08T10:33:06;5.72;;;1.92;;
54993;SDS011;40891;47.242;8.648;2023-07-08T10:35:39;3.35;;;1.70;;
54993;SDS011;40891;47.242;8.648;2023-07-08T10:38:23;3.47;;;1.95;;
54993;SDS011;40891;47.242;8.648;2023-07-08T10:40:54;2.20;;;1.58;;
54993;SDS011;40891;47.242;8.648;2023-07-08T10:51:52;3.63;;;1.67;;
54993;SDS011;40891;47.242;8.648;2023-07-08T10:59:53;3.15;;;1.88;;
54993;SDS011;40891;47.242;8.648;2023-07-08T11:02:58;2.92;;;1.90;;
54993;SDS011;40891;47.242;8.648;2023-07-08T11:10:46;4.80;;;1.83;;
54993;SDS011;40891;47.242;8.648;2023-07-08T11:13:21;3.20;;;2.00;;
54993;SDS011;40891;47.242;8.648;2023-07-08T11:18:15;4.07;;;2.00;;
54993;SDS011;40891;47.242;8.648;2023-07-08T11:21:09;3.25;;;2.10;;
54993;SDS011;40891;47.242;8.648;2023-07-08T11:23:40;3.17;;;2.00;;
54993;SDS011;40891;47.242;8.648;2023-07-08T11:26:16;3.55;;;1.70;;
54993;SDS011;40891;47.242;8.648;2023-07-08T11:28:44;5.63;;;2.03;;
54993;SDS011;40891;47.242;8.648;2023-07-08T11:31:10;1.98;;;1.77;;
54993;SDS011;40891;47.242;8.648;2023-07-08T11:33:36;5.35;;;2.08;;
54993;SDS011;40891;47.242;8.648;2023-07-08T11:36:03;6.40;;;2.30;;
54993;SDS011;40891;47.242;8.648;2023-07-08T11:38:31;4.38;;;2.00;;
54993;SDS011;40891;47.242;8.648;2023-07-08T11:41:02;6.05;;;1.90;;
54993;SDS011;40891;47.242;8.648;2023-07-08T11:43:39;3.53;;;2.05;;
54993;SDS011;40891;47.242;8.648;2023-07-08T11:46:13;3.95;;;2.05;;
54993;SDS011;40891;47.242;8.648;2023-07-08T11:48:47;3.88;;;2.10;;
54993;SDS011;40891;47.242;8.648;2023-07-08T11:51:58;5.22;;;2.25;;
54993;SDS011;40891;47.242;8.648;2023-07-08T11:54:13;5.10;;;2.00;;
54993;SDS011;40891;47.242;8.648;2023-07-08T11:56:46;3.33;;;1.92;;
54993;SDS011;40891;47.242;8.648;2023-07-08T11:59:21;3.78;;;1.83;;
54993;SDS011;40891;47.242;8.648;2023-07-08T12:02:02;4.60;;;2.20;;
54993;SDS011;40891;47.242;8.648;2023-07-08T12:07:08;5.07;;;2.20;;
54993;SDS011;40891;47.242;8.648;2023-07-08T12:09:47;3.42;;;1.77;;
54993;SDS011;40891;47.242;8.648;2023-07-08T12:12:23;3.63;;;2.28;;
54993;SDS011;40891;47.242;8.648;2023-07-08T12:14:53;2.70;;;2.10;;
54993;SDS011;40891;47.242;8.648;2023-07-08T12:17:37;3.90;;;2.40;;
54993;SDS011;40891;47.242;8.648;2023-07-08T12:20:05;3.70;;;2.30;;
54993;SDS011;40891;47.242;8.648;2023-07-08T12:22:42;7.28;;;2.30;;
54993;SDS011;40891;47.242;8.648;2023-07-08T12:25:18;3.30;;;1.90;;
54993;SDS011;40891;47.242;8.648;2023-07-08T12:27:46;4.20;;;2.38;;
54993;SDS011;40891;47.242;8.648;2023-07-08T12:30:13;5.82;;;2.35;;
54993;SDS011;40891;47.242;8.648;2023-07-08T12:32:40;5.03;;;2.53;;
54993;SDS011;40891;47.242;8.648;2023-07-08T12:35:19;5.55;;;2.70;;
54993;SDS011;40891;47.242;8.648;2023-07-08T12:37:46;4.15;;;2.28;;
54993;SDS011;40891;47.242;8.648;2023-07-08T12:40:12;4.35;;;2.17;;
54993;SDS011;40891;47.242;8.648;2023-07-08T12:42:38;4.07;;;2.25;;
54993;SDS011;40891;47.242;8.648;2023-07-08T12:45:08;4.07;;;2.28;;
54993;SDS011;40891;47.242;8.648;2023-07-08T12:47:38;4.65;;;2.50;;
54993;SDS011;40891;47.242;8.648;2023-07-08T12:50:04;6.47;;;2.55;;
54993;SDS011;40891;47.242;8.648;2023-07-08T12:52:29;4.50;;;1.90;;
54993;SDS011;40891;47.242;8.648;2023-07-08T12:54:54;3.83;;;2.40;;
54993;SDS011;40891;47.242;8.648;2023-07-08T12:57:20;4.53;;;2.33;;
54993;SDS011;40891;47.242;8.648;2023-07-08T12:59:45;3.13;;;2.22;;
54993;SDS011;40891;47.242;8.648;2023-07-08T13:02:15;5.97;;;2.22;;
54993;SDS011;40891;47.242;8.648;2023-07-08T13:04:44;3.95;;;2.30;;
54993;SDS011;40891;47.242;8.648;2023-07-08T13:07:21;7.10;;;2.15;;
54993;SDS011;40891;47.242;8.648;2023-07-08T13:09:53;5.43;;;2.33;;
54993;SDS011;40891;47.242;8.648;2023-07-08T13:12:19;3.17;;;2.30;;
54993;SDS011;40891;47.242;8.648;2023-07-08T13:14:49;3.88;;;2.10;;
54993;SDS011;40891;47.242;8.648;2023-07-08T13:17:16;3.67;;;2.35;;
54993;SDS011;40891;47.242;8.648;2023-07-08T13:19:42;5.78;;;2.20;;
54993;SDS011;40891;47.242;8.648;2023-07-08T13:22:11;2.55;;;2.10;;
54993;SDS011;40891;47.242;8.648;2023-07-08T13:24:40;3.90;;;2.10;;
54993;SDS011;40891;47.242;8.648;2023-07-08T13:27:07;5.90;;;2.58;;
54993;SDS011;40891;47.242;8.648;2023-07-08T13:29:38;5.63;;;2.35;;
54993;SDS011;40891;47.242;8.648;2023-07-08T13:32:04;5.03;;;2.40;;
54993;SDS011;40891;47.242;8.648;2023-07-08T13:34:30;2.97;;;2.30;;
54993;SDS011;40891;47.242;8.648;2023-07-08T13:36:57;3.95;;;2.50;;
54993;SDS011;40891;47.242;8.648;2023-07-08T13:39:31;4.15;;;2.33;;
54993;SDS011;40891;47.242;8.648;2023-07-08T13:41:58;6.45;;;2.72;;
54993;SDS011;40891;47.242;8.648;2023-07-08T13:44:24;4.55;;;2.35;;
54993;SDS011;40891;47.242;8.648;2023-07-08T13:46:51;5.47;;;2.83;;
54993;SDS011;40891;47.242;8.648;2023-07-08T13:49:20;6.05;;;2.75;;
54993;SDS011;40891;47.242;8.648;2023-07-08T13:51:47;4.30;;;2.38;;
54993;SDS011;40891;47.242;8.648;2023-07-08T13:54:22;6.57;;;2.55;;
54993;SDS011;40891;47.242;8.648;2023-07-08T13:56:50;5.15;;;2.33;;
54993;SDS011;40891;47.242;8.648;2023-07-08T13:59:23;5.18;;;2.67;;
54993;SDS011;40891;47.242;8.648;2023-07-08T14:01:54;3.47;;;2.10;;
54993;SDS011;40891;47.242;8.648;2023-07-08T14:04:27;5.57;;;2.50;;
54993;SDS011;40891;47.242;8.648;2023-07-08T14:06:55;4.07;;;2.55;;
54993;SDS011;40891;47.242;8.648;2023-07-08T14:09:22;5.15;;;2.50;;
54993;SDS011;40891;47.242;8.648;2023-07-08T14:11:48;4.28;;;2.40;;
54993;SDS011;40891;47.242;8.648;2023-07-08T14:14:15;3.65;;;2.03;;
54993;SDS011;40891;47.242;8.648;2023-07-08T14:16:46;3.13;;;2.15;;
54993;SDS011;40891;47.242;8.648;2023-07-08T14:19:15;4.53;;;2.30;;
54993;SDS011;40891;47.242;8.648;2023-07-08T14:21:45;4.95;;;2.13;;
54993;SDS011;40891;47.242;8.648;2023-07-08T14:24:14;3.33;;;2.25;;
54993;SDS011;40891;47.242;8.648;2023-07-08T14:26:43;5.13;;;2.10;;
54993;SDS011;40891;47.242;8.648;2023-07-08T14:29:09;3.35;;;1.90;;
54993;SDS011;40891;47.242;8.648;2023-07-08T14:31:34;4.47;;;2.10;;
54993;SDS011;40891;47.242;8.648;2023-07-08T14:34:23;3.90;;;1.80;;
54993;SDS011;40891;47.242;8.648;2023-07-08T14:36:50;3.50;;;2.20;;
54993;SDS011;40891;47.242;8.648;2023-07-08T14:39:17;3.60;;;1.75;;
54993;SDS011;40891;47.242;8.648;2023-07-08T14:41:43;5.03;;;2.20;;
54993;SDS011;40891;47.242;8.648;2023-07-08T14:44:18;3.20;;;2.20;;
54993;SDS011;40891;47.242;8.648;2023-07-08T14:46:47;4.03;;;2.30;;
54993;SDS011;40891;47.242;8.648;2023-07-08T14:49:16;3.85;;;2.00;;
54993;SDS011;40891;47.242;8.648;2023-07-08T14:51:46;4.85;;;2.28;;
54993;SDS011;40891;47.242;8.648;2023-07-08T14:54:11;2.75;;;2.08;;
54993;SDS011;40891;47.242;8.648;2023-07-08T14:56:37;2.92;;;2.17;;
54993;SDS011;40891;47.242;8.648;2023-07-08T14:59:03;4.03;;;2.22;;
54993;SDS011;40891;47.242;8.648;2023-07-08T15:01:28;5.53;;;2.10;;
54993;SDS011;40891;47.242;8.648;2023-07-08T15:03:55;4.53;;;2.22;;
54993;SDS011;40891;47.242;8.648;2023-07-08T15:06:21;5.80;;;2.45;;
54993;SDS011;40891;47.242;8.648;2023-07-08T15:08:47;5.78;;;2.30;;
54993;SDS011;40891;47.242;8.648;2023-07-08T15:11:12;3.60;;;2.40;;
54993;SDS011;40891;47.242;8.648;2023-07-08T15:13:38;4.18;;;2.10;;
54993;SDS011;40891;47.242;8.648;2023-07-08T15:16:04;4.63;;;2.10;;
54993;SDS011;40891;47.242;8.648;2023-07-08T15:18:30;5.90;;;2.50;;
54993;SDS011;40891;47.242;8.648;2023-07-08T15:20:55;5.90;;;2.40;;
54993;SDS011;40891;47.242;8.648;2023-07-08T15:23:21;3.97;;;2.50;;
54993;SDS011;40891;47.242;8.648;2023-07-08T15:25:46;4.72;;;2.67;;
54993;SDS011;40891;47.242;8.648;2023-07-08T15:28:19;5.63;;;2.35;;
54993;SDS011;40891;47.242;8.648;2023-07-08T15:30:59;4.70;;;2.72;;
54993;SDS011;40891;47.242;8.648;2023-07-08T15:33:26;2.67;;;2.30;;
54993;SDS011;40891;47.242;8.648;2023-07-08T15:35:52;4.60;;;2.50;;